sensor_id;sensor_type;location;lat;lon;timestamp;P1;durP1;ratioP1;P2;durP2;ratioP2
51358;SDS011;37448;51.588;7.248;2022-12-18T00:00:53;67.13;;;27.63;;
51358;SDS011;37448;51.588;7.248;2022-12-18T00:02:55;64.60;;;25.48;;
51358;SDS011;37448;51.588;7.248;2022-12-18T00:04:55;64.00;;;25.67;;
51358;SDS011;37448;51.588;7.248;2022-12-18T00:06:56;63.50;;;26.17;;
51358;SDS011;37448;51.588;7.248;2022-12-18T00:08:57;66.07;;;26.38;;
51358;SDS011;37448;51.588;7.248;2022-12-18T00:11:03;63.15;;;26.00;;
51358;SDS011;37448;51.588;7.248;2022-12-18T00:13:05;61.78;;;26.85;;
51358;SDS011;37448;51.588;7.248;2022-12-18T00:15:05;62.47;;;27.73;;
51358;SDS011;37448;51.588;7.248;2022-12-18T00:17:06;61.85;;;27.42;;
51358;SDS011;37448;51.588;7.248;2022-12-18T00:19:06;63.03;;;25.85;;
51358;SDS011;37448;51.588;7.248;2022-12-18T00:21:09;63.83;;;26.88;;
51358;SDS011;37448;51.588;7.248;2022-12-18T00:23:10;70.10;;;28.70;;
51358;SDS011;37448;51.588;7.248;2022-12-18T00:25:11;69.18;;;29.45;;
51358;SDS011;37448;51.588;7.248;2022-12-18T00:27:11;58.53;;;25.98;;
51358;SDS011;37448;51.588;7.248;2022-12-18T00:29:12;61.40;;;26.88;;
51358;SDS011;37448;51.588;7.248;2022-12-18T00:31:14;59.28;;;27.42;;
51358;SDS011;37448;51.588;7.248;2022-12-18T00:33:18;67.53;;;27.02;;
51358;SDS011;37448;51.588;7.248;2022-12-18T00:35:18;59.83;;;24.10;;
51358;SDS011;37448;51.588;7.248;2022-12-18T00:37:20;68.60;;;26.27;;
51358;SDS011;37448;51.588;7.248;2022-12-18T00:39:24;63.15;;;26.92;;
51358;SDS011;37448;51.588;7.248;2022-12-18T00:41:25;67.90;;;27.02;;
51358;SDS011;37448;51.588;7.248;2022-12-18T00:43:45;59.35;;;25.33;;
51358;SDS011;37448;51.588;7.248;2022-12-18T00:45:45;66.65;;;27.48;;
51358;SDS011;37448;51.588;7.248;2022-12-18T00:47:46;70.18;;;25.45;;
51358;SDS011;37448;51.588;7.248;2022-12-18T00:49:46;65.68;;;26.88;;
51358;SDS011;37448;51.588;7.248;2022-12-18T00:51:47;58.72;;;26.50;;
51358;SDS011;37448;51.588;7.248;2022-12-18T00:53:47;59.25;;;25.20;;
51358;SDS011;37448;51.588;7.248;2022-12-18T00:55:48;63.58;;;25.75;;
51358;SDS011;37448;51.588;7.248;2022-12-18T00:57:48;63.95;;;27.02;;
51358;SDS011;37448;51.588;7.248;2022-12-18T00:59:52;56.33;;;24.95;;
51358;SDS011;37448;51.588;7.248;2022-12-18T01:01:52;57.08;;;24.90;;
51358;SDS011;37448;51.588;7.248;2022-12-18T01:03:54;69.22;;;25.42;;
51358;SDS011;37448;51.588;7.248;2022-12-18T01:05:54;60.53;;;25.08;;
51358;SDS011;37448;51.588;7.248;2022-12-18T01:07:56;55.17;;;23.52;;
51358;SDS011;37448;51.588;7.248;2022-12-18T01:09:57;65.03;;;26.63;;
51358;SDS011;37448;51.588;7.248;2022-12-18T01:11:57;64.32;;;26.83;;
51358;SDS011;37448;51.588;7.248;2022-12-18T01:13:58;62.83;;;26.00;;
51358;SDS011;37448;51.588;7.248;2022-12-18T01:15:58;65.18;;;25.08;;
51358;SDS011;37448;51.588;7.248;2022-12-18T01:17:59;67.43;;;26.02;;
51358;SDS011;37448;51.588;7.248;2022-12-18T01:20:00;61.72;;;24.48;;
51358;SDS011;37448;51.588;7.248;2022-12-18T01:22:01;71.40;;;27.58;;
51358;SDS011;37448;51.588;7.248;2022-12-18T01:24:01;68.40;;;26.73;;
51358;SDS011;37448;51.588;7.248;2022-12-18T01:26:10;65.28;;;26.05;;
51358;SDS011;37448;51.588;7.248;2022-12-18T01:28:12;63.92;;;26.42;;
51358;SDS011;37448;51.588;7.248;2022-12-18T01:30:14;75.70;;;28.20;;
51358;SDS011;37448;51.588;7.248;2022-12-18T01:32:15;66.63;;;25.95;;
51358;SDS011;37448;51.588;7.248;2022-12-18T01:34:15;67.72;;;26.38;;
51358;SDS011;37448;51.588;7.248;2022-12-18T01:36:19;68.22;;;26.50;;
51358;SDS011;37448;51.588;7.248;2022-12-18T01:38:22;59.65;;;24.85;;
51358;SDS011;37448;51.588;7.248;2022-12-18T01:40:22;64.57;;;26.30;;
51358;SDS011;37448;51.588;7.248;2022-12-18T01:42:25;59.70;;;25.60;;
51358;SDS011;37448;51.588;7.248;2022-12-18T01:46:55;60.30;;;25.90;;
51358;SDS011;37448;51.588;7.248;2022-12-18T01:48:59;68.43;;;27.48;;
51358;SDS011;37448;51.588;7.248;2022-12-18T01:51:01;65.85;;;27.00;;
51358;SDS011;37448;51.588;7.248;2022-12-18T01:53:03;64.35;;;25.05;;
51358;SDS011;37448;51.588;7.248;2022-12-18T01:55:11;58.13;;;24.98;;
51358;SDS011;37448;51.588;7.248;2022-12-18T01:57:13;64.60;;;27.52;;
51358;SDS011;37448;51.588;7.248;2022-12-18T01:59:13;69.25;;;27.17;;
51358;SDS011;37448;51.588;7.248;2022-12-18T02:01:14;59.85;;;24.13;;
51358;SDS011;37448;51.588;7.248;2022-12-18T02:03:15;59.42;;;25.20;;
51358;SDS011;37448;51.588;7.248;2022-12-18T02:05:16;61.42;;;25.63;;
51358;SDS011;37448;51.588;7.248;2022-12-18T02:07:36;63.47;;;26.05;;
51358;SDS011;37448;51.588;7.248;2022-12-18T02:09:50;70.03;;;25.33;;
51358;SDS011;37448;51.588;7.248;2022-12-18T02:12:20;60.53;;;25.85;;
51358;SDS011;37448;51.588;7.248;2022-12-18T02:16:41;56.15;;;25.75;;
51358;SDS011;37448;51.588;7.248;2022-12-18T02:18:57;59.97;;;25.90;;
51358;SDS011;37448;51.588;7.248;2022-12-18T02:27:33;70.57;;;27.23;;
51358;SDS011;37448;51.588;7.248;2022-12-18T02:29:46;67.45;;;26.25;;
51358;SDS011;37448;51.588;7.248;2022-12-18T02:31:51;64.95;;;26.02;;
51358;SDS011;37448;51.588;7.248;2022-12-18T02:33:54;65.60;;;26.70;;
51358;SDS011;37448;51.588;7.248;2022-12-18T02:35:58;66.05;;;26.95;;
51358;SDS011;37448;51.588;7.248;2022-12-18T02:38:01;61.35;;;26.60;;
51358;SDS011;37448;51.588;7.248;2022-12-18T02:40:06;65.47;;;27.48;;
51358;SDS011;37448;51.588;7.248;2022-12-18T02:42:10;57.60;;;27.02;;
51358;SDS011;37448;51.588;7.248;2022-12-18T02:44:12;59.28;;;25.75;;
51358;SDS011;37448;51.588;7.248;2022-12-18T02:46:49;63.30;;;26.48;;
51358;SDS011;37448;51.588;7.248;2022-12-18T02:48:48;66.25;;;25.75;;
51358;SDS011;37448;51.588;7.248;2022-12-18T02:51:06;67.65;;;27.55;;
51358;SDS011;37448;51.588;7.248;2022-12-18T02:53:23;73.50;;;26.92;;
51358;SDS011;37448;51.588;7.248;2022-12-18T02:55:48;70.70;;;27.38;;
51358;SDS011;37448;51.588;7.248;2022-12-18T02:58:04;60.95;;;24.48;;
51358;SDS011;37448;51.588;7.248;2022-12-18T03:00:17;63.63;;;26.23;;
51358;SDS011;37448;51.588;7.248;2022-12-18T03:04:29;60.25;;;26.27;;
51358;SDS011;37448;51.588;7.248;2022-12-18T03:06:37;60.30;;;24.83;;
51358;SDS011;37448;51.588;7.248;2022-12-18T03:08:42;60.88;;;26.40;;
51358;SDS011;37448;51.588;7.248;2022-12-18T03:10:54;58.58;;;23.73;;
51358;SDS011;37448;51.588;7.248;2022-12-18T03:13:02;60.67;;;24.88;;
51358;SDS011;37448;51.588;7.248;2022-12-18T03:15:10;51.92;;;23.23;;
51358;SDS011;37448;51.588;7.248;2022-12-18T03:17:17;61.60;;;25.13;;
51358;SDS011;37448;51.588;7.248;2022-12-18T03:19:21;56.92;;;23.80;;
51358;SDS011;37448;51.588;7.248;2022-12-18T03:21:26;54.38;;;22.98;;
51358;SDS011;37448;51.588;7.248;2022-12-18T03:23:33;58.55;;;25.33;;
51358;SDS011;37448;51.588;7.248;2022-12-18T03:25:38;61.53;;;25.30;;
51358;SDS011;37448;51.588;7.248;2022-12-18T03:27:42;57.40;;;25.05;;
51358;SDS011;37448;51.588;7.248;2022-12-18T03:29:56;56.53;;;23.27;;
51358;SDS011;37448;51.588;7.248;2022-12-18T03:32:12;59.03;;;25.17;;
51358;SDS011;37448;51.588;7.248;2022-12-18T03:34:23;63.05;;;25.25;;
51358;SDS011;37448;51.588;7.248;2022-12-18T03:36:28;63.65;;;22.77;;
51358;SDS011;37448;51.588;7.248;2022-12-18T03:38:30;60.03;;;24.23;;
51358;SDS011;37448;51.588;7.248;2022-12-18T03:42:49;56.53;;;24.23;;
51358;SDS011;37448;51.588;7.248;2022-12-18T03:44:57;52.97;;;23.08;;
51358;SDS011;37448;51.588;7.248;2022-12-18T03:49:53;57.33;;;24.67;;
51358;SDS011;37448;51.588;7.248;2022-12-18T03:51:48;48.35;;;22.42;;
51358;SDS011;37448;51.588;7.248;2022-12-18T03:53:58;52.58;;;22.77;;
51358;SDS011;37448;51.588;7.248;2022-12-18T03:56:04;51.10;;;22.52;;
51358;SDS011;37448;51.588;7.248;2022-12-18T03:58:11;51.72;;;23.88;;
51358;SDS011;37448;51.588;7.248;2022-12-18T04:00:29;53.60;;;23.05;;
51358;SDS011;37448;51.588;7.248;2022-12-18T04:02:40;51.90;;;23.40;;
51358;SDS011;37448;51.588;7.248;2022-12-18T04:04:46;55.92;;;24.77;;
51358;SDS011;37448;51.588;7.248;2022-12-18T04:06:51;58.30;;;24.35;;
51358;SDS011;37448;51.588;7.248;2022-12-18T04:08:53;66.00;;;27.10;;
51358;SDS011;37448;51.588;7.248;2022-12-18T04:10:56;65.05;;;24.63;;
51358;SDS011;37448;51.588;7.248;2022-12-18T04:12:57;64.07;;;27.33;;
51358;SDS011;37448;51.588;7.248;2022-12-18T04:14:58;66.10;;;27.00;;
51358;SDS011;37448;51.588;7.248;2022-12-18T04:16:59;61.97;;;26.25;;
51358;SDS011;37448;51.588;7.248;2022-12-18T04:19:04;66.35;;;27.92;;
51358;SDS011;37448;51.588;7.248;2022-12-18T04:21:10;67.25;;;25.92;;
51358;SDS011;37448;51.588;7.248;2022-12-18T04:23:11;65.35;;;25.17;;
51358;SDS011;37448;51.588;7.248;2022-12-18T04:25:13;55.67;;;26.15;;
51358;SDS011;37448;51.588;7.248;2022-12-18T04:27:23;50.78;;;22.88;;
51358;SDS011;37448;51.588;7.248;2022-12-18T04:29:24;49.72;;;22.52;;
51358;SDS011;37448;51.588;7.248;2022-12-18T04:31:25;57.10;;;25.70;;
51358;SDS011;37448;51.588;7.248;2022-12-18T04:33:26;58.30;;;24.83;;
51358;SDS011;37448;51.588;7.248;2022-12-18T04:35:27;60.10;;;25.45;;
51358;SDS011;37448;51.588;7.248;2022-12-18T04:37:27;54.30;;;22.98;;
51358;SDS011;37448;51.588;7.248;2022-12-18T04:39:28;61.72;;;27.33;;
51358;SDS011;37448;51.588;7.248;2022-12-18T04:41:33;59.17;;;24.40;;
51358;SDS011;37448;51.588;7.248;2022-12-18T04:43:34;59.60;;;23.02;;
51358;SDS011;37448;51.588;7.248;2022-12-18T04:45:34;55.70;;;23.08;;
51358;SDS011;37448;51.588;7.248;2022-12-18T04:47:35;52.90;;;24.20;;
51358;SDS011;37448;51.588;7.248;2022-12-18T04:49:36;53.70;;;22.92;;
51358;SDS011;37448;51.588;7.248;2022-12-18T04:51:36;56.65;;;24.70;;
51358;SDS011;37448;51.588;7.248;2022-12-18T04:53:37;50.92;;;23.58;;
51358;SDS011;37448;51.588;7.248;2022-12-18T04:55:37;60.70;;;24.02;;
51358;SDS011;37448;51.588;7.248;2022-12-18T04:57:38;56.50;;;22.50;;
51358;SDS011;37448;51.588;7.248;2022-12-18T04:59:38;49.60;;;22.70;;
51358;SDS011;37448;51.588;7.248;2022-12-18T05:01:38;54.13;;;23.15;;
51358;SDS011;37448;51.588;7.248;2022-12-18T05:03:39;58.38;;;24.08;;
51358;SDS011;37448;51.588;7.248;2022-12-18T05:05:39;49.25;;;22.73;;
51358;SDS011;37448;51.588;7.248;2022-12-18T05:07:39;62.63;;;24.23;;
51358;SDS011;37448;51.588;7.248;2022-12-18T05:09:40;52.88;;;22.98;;
51358;SDS011;37448;51.588;7.248;2022-12-18T05:11:40;51.78;;;22.70;;
51358;SDS011;37448;51.588;7.248;2022-12-18T05:13:41;50.38;;;21.58;;
51358;SDS011;37448;51.588;7.248;2022-12-18T05:15:42;63.00;;;22.60;;
51358;SDS011;37448;51.588;7.248;2022-12-18T05:17:42;55.22;;;23.13;;
51358;SDS011;37448;51.588;7.248;2022-12-18T05:19:42;50.10;;;23.23;;
51358;SDS011;37448;51.588;7.248;2022-12-18T05:21:43;56.05;;;22.38;;
51358;SDS011;37448;51.588;7.248;2022-12-18T05:23:43;53.53;;;22.30;;
51358;SDS011;37448;51.588;7.248;2022-12-18T05:25:50;51.08;;;21.92;;
51358;SDS011;37448;51.588;7.248;2022-12-18T05:27:52;52.38;;;21.08;;
51358;SDS011;37448;51.588;7.248;2022-12-18T05:29:52;49.78;;;21.60;;
51358;SDS011;37448;51.588;7.248;2022-12-18T05:31:52;56.50;;;23.25;;
51358;SDS011;37448;51.588;7.248;2022-12-18T05:33:53;56.03;;;22.63;;
51358;SDS011;37448;51.588;7.248;2022-12-18T05:35:54;48.88;;;20.27;;
51358;SDS011;37448;51.588;7.248;2022-12-18T05:37:56;49.47;;;21.20;;
51358;SDS011;37448;51.588;7.248;2022-12-18T05:39:56;54.55;;;21.88;;
51358;SDS011;37448;51.588;7.248;2022-12-18T05:41:57;49.13;;;21.30;;
51358;SDS011;37448;51.588;7.248;2022-12-18T05:43:57;50.83;;;21.13;;
51358;SDS011;37448;51.588;7.248;2022-12-18T05:46:01;53.30;;;22.27;;
51358;SDS011;37448;51.588;7.248;2022-12-18T05:48:04;57.42;;;22.30;;
51358;SDS011;37448;51.588;7.248;2022-12-18T05:50:05;51.28;;;21.13;;
51358;SDS011;37448;51.588;7.248;2022-12-18T05:52:06;54.05;;;21.92;;
51358;SDS011;37448;51.588;7.248;2022-12-18T05:54:07;54.70;;;23.13;;
51358;SDS011;37448;51.588;7.248;2022-12-18T05:56:08;48.35;;;20.52;;
51358;SDS011;37448;51.588;7.248;2022-12-18T05:58:10;53.08;;;20.85;;
51358;SDS011;37448;51.588;7.248;2022-12-18T06:00:12;60.47;;;23.23;;
51358;SDS011;37448;51.588;7.248;2022-12-18T06:02:13;49.88;;;22.35;;
51358;SDS011;37448;51.588;7.248;2022-12-18T06:04:13;59.65;;;24.90;;
51358;SDS011;37448;51.588;7.248;2022-12-18T06:06:18;55.20;;;24.25;;
51358;SDS011;37448;51.588;7.248;2022-12-18T06:08:23;52.72;;;21.60;;
51358;SDS011;37448;51.588;7.248;2022-12-18T06:10:23;61.42;;;24.13;;
51358;SDS011;37448;51.588;7.248;2022-12-18T06:12:24;60.67;;;24.08;;
51358;SDS011;37448;51.588;7.248;2022-12-18T06:14:24;55.92;;;24.00;;
51358;SDS011;37448;51.588;7.248;2022-12-18T06:16:25;60.10;;;25.17;;
51358;SDS011;37448;51.588;7.248;2022-12-18T06:18:26;64.18;;;25.02;;
51358;SDS011;37448;51.588;7.248;2022-12-18T06:20:26;56.22;;;23.63;;
51358;SDS011;37448;51.588;7.248;2022-12-18T06:22:27;54.10;;;23.42;;
51358;SDS011;37448;51.588;7.248;2022-12-18T06:24:27;61.03;;;26.15;;
51358;SDS011;37448;51.588;7.248;2022-12-18T06:26:27;57.17;;;24.25;;
51358;SDS011;37448;51.588;7.248;2022-12-18T06:28:28;56.10;;;25.02;;
51358;SDS011;37448;51.588;7.248;2022-12-18T06:30:28;51.70;;;22.85;;
51358;SDS011;37448;51.588;7.248;2022-12-18T06:32:29;57.03;;;23.23;;
51358;SDS011;37448;51.588;7.248;2022-12-18T06:34:29;50.45;;;21.45;;
51358;SDS011;37448;51.588;7.248;2022-12-18T06:36:29;50.05;;;22.27;;
51358;SDS011;37448;51.588;7.248;2022-12-18T06:38:31;47.63;;;22.58;;
51358;SDS011;37448;51.588;7.248;2022-12-18T06:40:32;49.65;;;21.45;;
51358;SDS011;37448;51.588;7.248;2022-12-18T06:42:33;46.70;;;20.95;;
51358;SDS011;37448;51.588;7.248;2022-12-18T06:44:33;50.38;;;21.50;;
51358;SDS011;37448;51.588;7.248;2022-12-18T06:46:33;57.38;;;21.48;;
51358;SDS011;37448;51.588;7.248;2022-12-18T06:48:34;54.08;;;21.33;;
51358;SDS011;37448;51.588;7.248;2022-12-18T06:50:34;49.92;;;20.02;;
51358;SDS011;37448;51.588;7.248;2022-12-18T06:52:34;57.45;;;22.42;;
51358;SDS011;37448;51.588;7.248;2022-12-18T06:54:35;50.70;;;22.40;;
51358;SDS011;37448;51.588;7.248;2022-12-18T06:56:35;45.17;;;19.70;;
51358;SDS011;37448;51.588;7.248;2022-12-18T06:58:36;48.15;;;19.83;;
51358;SDS011;37448;51.588;7.248;2022-12-18T07:00:37;46.80;;;20.45;;
51358;SDS011;37448;51.588;7.248;2022-12-18T07:02:37;48.35;;;21.42;;
51358;SDS011;37448;51.588;7.248;2022-12-18T07:04:37;47.08;;;20.65;;
51358;SDS011;37448;51.588;7.248;2022-12-18T07:06:38;48.85;;;21.27;;
51358;SDS011;37448;51.588;7.248;2022-12-18T07:08:38;48.80;;;21.08;;
51358;SDS011;37448;51.588;7.248;2022-12-18T07:10:42;56.28;;;21.88;;
51358;SDS011;37448;51.588;7.248;2022-12-18T07:12:43;50.58;;;21.17;;
51358;SDS011;37448;51.588;7.248;2022-12-18T07:14:44;54.05;;;21.52;;
51358;SDS011;37448;51.588;7.248;2022-12-18T07:16:44;52.75;;;21.33;;
51358;SDS011;37448;51.588;7.248;2022-12-18T07:18:44;45.03;;;21.42;;
51358;SDS011;37448;51.588;7.248;2022-12-18T07:20:45;48.95;;;21.02;;
51358;SDS011;37448;51.588;7.248;2022-12-18T07:22:45;48.90;;;19.75;;
51358;SDS011;37448;51.588;7.248;2022-12-18T07:24:46;46.88;;;20.27;;
51358;SDS011;37448;51.588;7.248;2022-12-18T07:26:46;43.47;;;19.98;;
51358;SDS011;37448;51.588;7.248;2022-12-18T07:28:47;45.70;;;18.00;;
51358;SDS011;37448;51.588;7.248;2022-12-18T07:30:47;51.17;;;21.65;;
51358;SDS011;37448;51.588;7.248;2022-12-18T07:32:48;46.55;;;19.30;;
51358;SDS011;37448;51.588;7.248;2022-12-18T07:34:48;48.50;;;20.20;;
51358;SDS011;37448;51.588;7.248;2022-12-18T07:36:48;46.03;;;20.33;;
51358;SDS011;37448;51.588;7.248;2022-12-18T07:38:49;44.65;;;19.55;;
51358;SDS011;37448;51.588;7.248;2022-12-18T07:40:50;45.42;;;18.00;;
51358;SDS011;37448;51.588;7.248;2022-12-18T07:42:50;46.03;;;19.23;;
51358;SDS011;37448;51.588;7.248;2022-12-18T07:44:50;43.67;;;20.17;;
51358;SDS011;37448;51.588;7.248;2022-12-18T07:46:51;42.42;;;19.10;;
51358;SDS011;37448;51.588;7.248;2022-12-18T07:48:51;51.58;;;20.38;;
51358;SDS011;37448;51.588;7.248;2022-12-18T07:50:52;44.67;;;18.92;;
51358;SDS011;37448;51.588;7.248;2022-12-18T07:52:52;52.50;;;20.08;;
51358;SDS011;37448;51.588;7.248;2022-12-18T07:54:52;46.63;;;18.65;;
51358;SDS011;37448;51.588;7.248;2022-12-18T07:56:53;49.67;;;19.20;;
51358;SDS011;37448;51.588;7.248;2022-12-18T07:58:53;44.15;;;19.63;;
51358;SDS011;37448;51.588;7.248;2022-12-18T08:00:54;41.58;;;18.38;;
51358;SDS011;37448;51.588;7.248;2022-12-18T08:03:09;44.67;;;18.00;;
51358;SDS011;37448;51.588;7.248;2022-12-18T08:05:09;44.33;;;18.77;;
51358;SDS011;37448;51.588;7.248;2022-12-18T08:07:10;40.83;;;18.15;;
51358;SDS011;37448;51.588;7.248;2022-12-18T08:09:10;45.53;;;17.85;;
51358;SDS011;37448;51.588;7.248;2022-12-18T08:11:11;41.25;;;17.20;;
51358;SDS011;37448;51.588;7.248;2022-12-18T08:13:11;48.85;;;21.35;;
51358;SDS011;37448;51.588;7.248;2022-12-18T08:15:12;44.13;;;19.38;;
51358;SDS011;37448;51.588;7.248;2022-12-18T08:17:12;40.17;;;17.80;;
51358;SDS011;37448;51.588;7.248;2022-12-18T08:19:12;36.75;;;16.55;;
51358;SDS011;37448;51.588;7.248;2022-12-18T08:21:14;40.92;;;19.10;;
51358;SDS011;37448;51.588;7.248;2022-12-18T08:23:16;37.25;;;17.65;;
51358;SDS011;37448;51.588;7.248;2022-12-18T08:25:17;38.25;;;16.27;;
51358;SDS011;37448;51.588;7.248;2022-12-18T08:27:17;40.83;;;17.42;;
51358;SDS011;37448;51.588;7.248;2022-12-18T08:29:18;31.60;;;16.55;;
51358;SDS011;37448;51.588;7.248;2022-12-18T08:31:18;39.80;;;17.77;;
51358;SDS011;37448;51.588;7.248;2022-12-18T08:33:19;41.08;;;16.17;;
51358;SDS011;37448;51.588;7.248;2022-12-18T08:35:19;33.85;;;16.25;;
51358;SDS011;37448;51.588;7.248;2022-12-18T08:37:20;36.78;;;15.70;;
51358;SDS011;37448;51.588;7.248;2022-12-18T08:39:20;33.72;;;14.52;;
51358;SDS011;37448;51.588;7.248;2022-12-18T08:41:21;34.88;;;16.27;;
51358;SDS011;37448;51.588;7.248;2022-12-18T08:43:25;33.60;;;15.02;;
51358;SDS011;37448;51.588;7.248;2022-12-18T08:46:00;31.80;;;14.02;;
51358;SDS011;37448;51.588;7.248;2022-12-18T08:48:00;29.52;;;13.48;;
51358;SDS011;37448;51.588;7.248;2022-12-18T08:50:01;27.25;;;13.48;;
51358;SDS011;37448;51.588;7.248;2022-12-18T08:52:01;27.20;;;12.57;;
51358;SDS011;37448;51.588;7.248;2022-12-18T08:54:02;29.48;;;13.85;;
51358;SDS011;37448;51.588;7.248;2022-12-18T08:56:04;29.40;;;13.35;;
51358;SDS011;37448;51.588;7.248;2022-12-18T08:58:05;21.65;;;11.02;;
51358;SDS011;37448;51.588;7.248;2022-12-18T09:00:05;26.77;;;12.82;;
51358;SDS011;37448;51.588;7.248;2022-12-18T09:02:07;21.30;;;11.10;;
51358;SDS011;37448;51.588;7.248;2022-12-18T09:04:09;22.75;;;11.18;;
51358;SDS011;37448;51.588;7.248;2022-12-18T09:06:13;23.67;;;10.68;;
51358;SDS011;37448;51.588;7.248;2022-12-18T09:08:14;26.08;;;11.00;;
51358;SDS011;37448;51.588;7.248;2022-12-18T09:10:14;22.98;;;11.38;;
51358;SDS011;37448;51.588;7.248;2022-12-18T09:12:15;24.83;;;11.18;;
51358;SDS011;37448;51.588;7.248;2022-12-18T09:14:15;21.58;;;10.35;;
51358;SDS011;37448;51.588;7.248;2022-12-18T09:16:16;24.90;;;11.65;;
51358;SDS011;37448;51.588;7.248;2022-12-18T09:18:17;23.75;;;11.30;;
51358;SDS011;37448;51.588;7.248;2022-12-18T09:20:18;23.25;;;11.13;;
51358;SDS011;37448;51.588;7.248;2022-12-18T09:22:19;23.00;;;10.82;;
51358;SDS011;37448;51.588;7.248;2022-12-18T09:24:22;22.48;;;11.45;;
51358;SDS011;37448;51.588;7.248;2022-12-18T09:26:22;24.13;;;10.68;;
51358;SDS011;37448;51.588;7.248;2022-12-18T09:28:24;22.65;;;11.23;;
51358;SDS011;37448;51.588;7.248;2022-12-18T09:30:25;25.65;;;11.95;;
51358;SDS011;37448;51.588;7.248;2022-12-18T09:32:25;22.63;;;11.45;;
51358;SDS011;37448;51.588;7.248;2022-12-18T09:34:26;23.90;;;11.35;;
51358;SDS011;37448;51.588;7.248;2022-12-18T09:36:26;25.15;;;11.68;;
51358;SDS011;37448;51.588;7.248;2022-12-18T09:38:26;27.30;;;13.20;;
51358;SDS011;37448;51.588;7.248;2022-12-18T09:40:28;27.42;;;12.77;;
51358;SDS011;37448;51.588;7.248;2022-12-18T09:42:34;26.48;;;12.02;;
51358;SDS011;37448;51.588;7.248;2022-12-18T09:44:41;26.67;;;12.75;;
51358;SDS011;37448;51.588;7.248;2022-12-18T09:46:53;24.48;;;12.25;;
51358;SDS011;37448;51.588;7.248;2022-12-18T09:49:02;23.70;;;11.93;;
51358;SDS011;37448;51.588;7.248;2022-12-18T09:51:14;25.13;;;11.85;;
51358;SDS011;37448;51.588;7.248;2022-12-18T09:53:19;21.10;;;10.57;;
51358;SDS011;37448;51.588;7.248;2022-12-18T09:55:24;21.92;;;11.88;;
51358;SDS011;37448;51.588;7.248;2022-12-18T09:57:29;23.60;;;11.57;;
51358;SDS011;37448;51.588;7.248;2022-12-18T09:59:34;25.85;;;12.65;;
51358;SDS011;37448;51.588;7.248;2022-12-18T10:01:36;21.45;;;11.25;;
51358;SDS011;37448;51.588;7.248;2022-12-18T10:03:37;22.88;;;11.50;;
51358;SDS011;37448;51.588;7.248;2022-12-18T10:05:41;24.98;;;10.95;;
51358;SDS011;37448;51.588;7.248;2022-12-18T10:07:55;23.80;;;11.00;;
51358;SDS011;37448;51.588;7.248;2022-12-18T10:10:10;22.58;;;11.52;;
51358;SDS011;37448;51.588;7.248;2022-12-18T10:16:49;26.42;;;12.60;;
51358;SDS011;37448;51.588;7.248;2022-12-18T10:21:32;22.50;;;11.73;;
51358;SDS011;37448;51.588;7.248;2022-12-18T10:23:43;27.00;;;11.25;;
51358;SDS011;37448;51.588;7.248;2022-12-18T10:25:50;27.30;;;11.02;;
51358;SDS011;37448;51.588;7.248;2022-12-18T10:27:56;21.65;;;10.30;;
51358;SDS011;37448;51.588;7.248;2022-12-18T10:30:00;25.40;;;11.65;;
51358;SDS011;37448;51.588;7.248;2022-12-18T10:32:01;24.08;;;11.93;;
51358;SDS011;37448;51.588;7.248;2022-12-18T10:34:01;26.02;;;11.68;;
51358;SDS011;37448;51.588;7.248;2022-12-18T10:36:01;25.25;;;13.50;;
51358;SDS011;37448;51.588;7.248;2022-12-18T10:38:04;31.52;;;13.35;;
51358;SDS011;37448;51.588;7.248;2022-12-18T10:40:13;26.33;;;12.63;;
51358;SDS011;37448;51.588;7.248;2022-12-18T10:42:16;26.60;;;13.27;;
51358;SDS011;37448;51.588;7.248;2022-12-18T10:44:19;24.63;;;12.68;;
51358;SDS011;37448;51.588;7.248;2022-12-18T10:48:22;25.35;;;11.82;;
51358;SDS011;37448;51.588;7.248;2022-12-18T10:52:31;25.40;;;11.40;;
51358;SDS011;37448;51.588;7.248;2022-12-18T10:54:32;24.58;;;12.55;;
51358;SDS011;37448;51.588;7.248;2022-12-18T10:56:34;23.92;;;11.38;;
51358;SDS011;37448;51.588;7.248;2022-12-18T10:58:37;21.55;;;11.07;;
51358;SDS011;37448;51.588;7.248;2022-12-18T11:00:38;23.83;;;11.77;;
51358;SDS011;37448;51.588;7.248;2022-12-18T11:02:39;22.45;;;11.27;;
51358;SDS011;37448;51.588;7.248;2022-12-18T11:04:49;23.38;;;11.27;;
51358;SDS011;37448;51.588;7.248;2022-12-18T11:06:52;23.43;;;10.70;;
51358;SDS011;37448;51.588;7.248;2022-12-18T11:09:19;20.73;;;10.27;;
51358;SDS011;37448;51.588;7.248;2022-12-18T11:11:22;22.10;;;10.02;;
51358;SDS011;37448;51.588;7.248;2022-12-18T11:13:25;20.33;;;10.30;;
51358;SDS011;37448;51.588;7.248;2022-12-18T11:15:28;21.85;;;10.70;;
51358;SDS011;37448;51.588;7.248;2022-12-18T11:17:33;22.10;;;11.80;;
51358;SDS011;37448;51.588;7.248;2022-12-18T11:19:36;21.52;;;10.70;;
51358;SDS011;37448;51.588;7.248;2022-12-18T11:21:40;19.98;;;9.63;;
51358;SDS011;37448;51.588;7.248;2022-12-18T11:23:46;23.58;;;10.80;;
51358;SDS011;37448;51.588;7.248;2022-12-18T11:25:53;20.55;;;10.23;;
51358;SDS011;37448;51.588;7.248;2022-12-18T11:30:08;20.00;;;10.30;;
51358;SDS011;37448;51.588;7.248;2022-12-18T11:34:46;19.20;;;8.23;;
51358;SDS011;37448;51.588;7.248;2022-12-18T11:36:51;18.27;;;8.35;;
51358;SDS011;37448;51.588;7.248;2022-12-18T11:38:52;18.17;;;9.00;;
51358;SDS011;37448;51.588;7.248;2022-12-18T11:51:20;20.35;;;9.00;;
51358;SDS011;37448;51.588;7.248;2022-12-18T11:53:29;19.65;;;8.88;;
51358;SDS011;37448;51.588;7.248;2022-12-18T11:55:53;18.50;;;9.75;;
51358;SDS011;37448;51.588;7.248;2022-12-18T11:58:11;17.00;;;8.65;;
51358;SDS011;37448;51.588;7.248;2022-12-18T12:00:16;18.33;;;8.60;;
51358;SDS011;37448;51.588;7.248;2022-12-18T12:04:43;17.63;;;7.72;;
51358;SDS011;37448;51.588;7.248;2022-12-18T12:18:01;18.73;;;8.88;;
51358;SDS011;37448;51.588;7.248;2022-12-18T12:20:19;17.80;;;7.93;;
51358;SDS011;37448;51.588;7.248;2022-12-18T12:22:35;14.32;;;7.45;;
51358;SDS011;37448;51.588;7.248;2022-12-18T12:24:59;19.50;;;9.50;;
51358;SDS011;37448;51.588;7.248;2022-12-18T12:29:40;20.95;;;8.90;;
51358;SDS011;37448;51.588;7.248;2022-12-18T12:36:37;16.35;;;9.18;;
51358;SDS011;37448;51.588;7.248;2022-12-18T12:38:55;20.15;;;9.52;;
51358;SDS011;37448;51.588;7.248;2022-12-18T12:41:21;19.25;;;9.52;;
51358;SDS011;37448;51.588;7.248;2022-12-18T12:43:43;19.05;;;9.25;;
51358;SDS011;37448;51.588;7.248;2022-12-18T12:47:55;19.42;;;10.35;;
51358;SDS011;37448;51.588;7.248;2022-12-18T12:49:58;20.00;;;10.18;;
51358;SDS011;37448;51.588;7.248;2022-12-18T12:52:16;18.77;;;9.45;;
51358;SDS011;37448;51.588;7.248;2022-12-18T12:54:25;18.13;;;8.73;;
51358;SDS011;37448;51.588;7.248;2022-12-18T12:56:32;21.35;;;10.02;;
51358;SDS011;37448;51.588;7.248;2022-12-18T13:05:45;17.25;;;9.25;;
51358;SDS011;37448;51.588;7.248;2022-12-18T13:08:03;21.48;;;9.02;;
51358;SDS011;37448;51.588;7.248;2022-12-18T13:10:31;18.83;;;9.13;;
51358;SDS011;37448;51.588;7.248;2022-12-18T13:12:34;19.58;;;8.57;;
51358;SDS011;37448;51.588;7.248;2022-12-18T13:14:53;20.55;;;8.77;;
51358;SDS011;37448;51.588;7.248;2022-12-18T13:17:13;20.98;;;9.32;;
51358;SDS011;37448;51.588;7.248;2022-12-18T13:19:25;20.10;;;8.73;;
51358;SDS011;37448;51.588;7.248;2022-12-18T13:21:30;22.92;;;9.25;;